Time;durP1;ratioP1;P1;durP2;ratioP2;P2;SDS_P1;SDS_P2;PMS_P1;PMS_P2;Temp;Humidity;BMP_temperature;BMP_pressure;BME280_temperature;BME280_humidity;BME280_pressure;Samples;Min_cycle;Max_cycle;Signal;HPM_P1;HPM_P2
2022/10/05 00:01:38;;;;;;;22.25;11.07;;;;;;;;;;7378341;19;19998;-74
2022/10/05 00:04:18;;;;;;;22.23;11.32;;;;;;;;;;7378862;19;20018;-73
2022/10/05 00:06:49;;;;;;;20.60;11.00;;;;;;;;;;7380367;19;20496;-74
2022/10/05 00:09:20;;;;;;;18.65;10.55;;;;;;;;;;7381167;19;20003;-75
2022/10/05 00:11:46;;;;;;;26.40;11.27;;;;;;;;;;7375405;19;20028;-74
2022/10/05 00:14:25;;;;;;;21.30;11.38;;;;;;;;;;7382667;19;19999;-73
2022/10/05 00:16:50;;;;;;;19.10;11.05;;;;;;;;;;7384819;19;20002;-74
2022/10/05 00:19:41;;;;;;;19.50;11.13;;;;;;;;;;7384893;19;20011;-74
2022/10/05 00:22:15;;;;;;;24.27;11.05;;;;;;;;;;7382920;19;20006;-75
2022/10/05 00:24:42;;;;;;;19.85;10.70;;;;;;;;;;7384762;19;20020;-74
2022/10/05 00:27:22;;;;;;;24.23;11.32;;;;;;;;;;7386108;19;20025;-74
2022/10/05 00:29:50;;;;;;;21.10;11.18;;;;;;;;;;7384275;19;20007;-75
2022/10/05 00:32:15;;;;;;;16.90;10.13;;;;;;;;;;7383052;19;20019;-74
2022/10/05 00:34:41;;;;;;;18.52;9.98;;;;;;;;;;7383654;19;20003;-73
2022/10/05 00:37:07;;;;;;;20.05;10.63;;;;;;;;;;7384605;19;19999;-76
2022/10/05 00:39:34;;;;;;;21.58;10.27;;;;;;;;;;7384146;19;20376;-76
2022/10/05 00:42:44;;;;;;;21.50;11.02;;;;;;;;;;7380763;19;20007;-75
2022/10/05 00:45:20;;;;;;;20.33;10.50;;;;;;;;;;7389961;19;20002;-73
2022/10/05 00:47:55;;;;;;;18.80;10.63;;;;;;;;;;7391614;19;20484;-75
2022/10/05 00:50:41;;;;;;;19.88;10.27;;;;;;;;;;7390253;19;20003;-75
2022/10/05 00:53:09;;;;;;;22.92;11.18;;;;;;;;;;7389678;19;20006;-74
2022/10/05 00:56:02;;;;;;;19.70;10.27;;;;;;;;;;7389355;19;20002;-75
2022/10/05 00:58:44;;;;;;;19.95;10.18;;;;;;;;;;7390678;19;20368;-74
2022/10/05 01:01:26;;;;;;;25.30;10.82;;;;;;;;;;7386655;19;20070;-75
2022/10/05 01:04:04;;;;;;;18.40;10.18;;;;;;;;;;7391378;19;20006;-73
2022/10/05 01:06:39;;;;;;;18.92;10.10;;;;;;;;;;7389189;19;20003;-74
2022/10/05 01:09:07;;;;;;;18.20;9.55;;;;;;;;;;7390772;19;20309;-75
2022/10/05 01:11:53;;;;;;;20.65;10.80;;;;;;;;;;7386837;19;20384;-74
2022/10/05 01:14:33;;;;;;;23.77;9.95;;;;;;;;;;7391497;19;20042;-75
2022/10/05 01:17:20;;;;;;;22.13;10.55;;;;;;;;;;7390630;19;20396;-74
2022/10/05 01:20:21;;;;;;;20.98;10.30;;;;;;;;;;7388835;19;20497;-75
2022/10/05 01:22:56;;;;;;;24.20;9.98;;;;;;;;;;7392301;19;20005;-74
2022/10/05 01:26:07;;;;;;;16.70;9.48;;;;;;;;;;7390385;19;20002;-75
2022/10/05 01:28:43;;;;;;;21.35;11.52;;;;;;;;;;7389320;19;20003;-74
2022/10/05 01:31:16;;;;;;;23.08;10.15;;;;;;;;;;7387934;19;20382;-75
2022/10/05 01:33:45;;;;;;;19.75;9.57;;;;;;;;;;7390501;19;20358;-75
2022/10/05 01:36:28;;;;;;;20.08;10.65;;;;;;;;;;7389885;19;20005;-75
2022/10/05 01:39:05;;;;;;;18.77;10.07;;;;;;;;;;7389866;19;20394;-75
2022/10/05 01:41:56;;;;;;;20.58;10.32;;;;;;;;;;7385005;19;20070;-74
2022/10/05 01:44:30;;;;;;;17.23;10.13;;;;;;;;;;7388597;19;20511;-76
2022/10/05 01:47:02;;;;;;;23.90;10.43;;;;;;;;;;7385819;19;20247;-74
2022/10/05 01:49:30;;;;;;;18.45;9.43;;;;;;;;;;7386848;19;20355;-74
2022/10/05 01:52:07;;;;;;;20.42;9.90;;;;;;;;;;7383267;19;20074;-75
2022/10/05 01:55:01;;;;;;;18.77;10.25;;;;;;;;;;7387825;19;20468;-73
2022/10/05 01:57:48;;;;;;;19.60;10.63;;;;;;;;;;7388384;19;20003;-75
2022/10/05 02:00:17;;;;;;;20.00;10.38;;;;;;;;;;7388380;19;20002;-75
2022/10/05 02:02:59;;;;;;;20.75;10.88;;;;;;;;;;7387504;19;20002;-76
2022/10/05 02:05:32;;;;;;;29.35;10.50;;;;;;;;;;7389021;19;20380;-74
2022/10/05 02:08:14;;;;;;;20.27;10.70;;;;;;;;;;7388558;19;19998;-73
2022/10/05 02:10:46;;;;;;;19.15;10.48;;;;;;;;;;7388345;19;20678;-75
2022/10/05 02:13:24;;;;;;;21.60;10.43;;;;;;;;;;7387667;19;21013;-75
2022/10/05 02:15:58;;;;;;;16.63;9.45;;;;;;;;;;7387225;19;20014;-75
2022/10/05 02:18:31;;;;;;;22.30;11.43;;;;;;;;;;7389510;19;20003;-75
2022/10/05 02:20:59;;;;;;;20.48;9.70;;;;;;;;;;7387075;19;20540;-73
2022/10/05 02:23:31;;;;;;;20.35;10.63;;;;;;;;;;7388627;19;20019;-75
2022/10/05 02:25:56;;;;;;;;;;;;;;;;;;7391403;19;20011;-74
2022/10/05 02:28:35;;;;;;;20.05;9.38;;;;;;;;;;7392918;19;19927;-73
2022/10/05 02:31:07;;;;;;;27.85;10.48;;;;;;;;;;7386795;19;20009;-75
2022/10/05 02:33:34;;;;;;;24.63;10.55;;;;;;;;;;7388717;19;20002;-73
2022/10/05 02:36:06;;;;;;;19.20;10.15;;;;;;;;;;7386602;19;20018;-74
2022/10/05 02:39:00;;;;;;;21.38;10.13;;;;;;;;;;7388408;19;20089;-75
2022/10/05 02:41:33;;;;;;;17.50;9.23;;;;;;;;;;7384393;19;20023;-73
2022/10/05 02:44:23;;;;;;;17.65;9.38;;;;;;;;;;7388382;19;20096;-73
2022/10/05 02:47:01;;;;;;;21.42;10.55;;;;;;;;;;7388775;19;20002;-75
2022/10/05 02:49:54;;;;;;;20.13;10.15;;;;;;;;;;7388445;19;20587;-75
2022/10/05 02:52:39;;;;;;;25.98;10.40;;;;;;;;;;7385746;19;20037;-73
2022/10/05 02:55:27;;;;;;;21.02;10.10;;;;;;;;;;7386824;19;20024;-75
2022/10/05 02:58:15;;;;;;;21.10;9.77;;;;;;;;;;7387785;19;20015;-73
2022/10/05 03:01:01;;;;;;;21.88;10.52;;;;;;;;;;7387116;19;20010;-74
2022/10/05 03:03:36;;;;;;;21.52;10.52;;;;;;;;;;7391799;19;20031;-76
2022/10/05 03:06:05;;;;;;;20.42;10.18;;;;;;;;;;7390475;19;20007;-73
2022/10/05 03:08:44;;;;;;;19.52;11.00;;;;;;;;;;7389898;19;20006;-74
2022/10/05 03:11:22;;;;;;;24.83;12.20;;;;;;;;;;7385207;19;20002;-73
2022/10/05 03:14:15;;;;;;;24.40;11.30;;;;;;;;;;7392173;19;20469;-75
2022/10/05 03:16:58;;;;;;;28.83;12.13;;;;;;;;;;7387702;19;20507;-75
2022/10/05 03:19:53;;;;;;;41.30;12.57;;;;;;;;;;7387521;19;20041;-75
2022/10/05 03:22:36;;;;;;;29.58;12.68;;;;;;;;;;7386067;19;20010;-73
2022/10/05 03:25:32;;;;;;;34.47;13.52;;;;;;;;;;7387941;19;20002;-75
2022/10/05 03:28:33;;;;;;;29.35;14.30;;;;;;;;;;7390293;19;20548;-75
2022/10/05 03:31:33;;;;;;;22.35;12.07;;;;;;;;;;7384393;19;20003;-74
2022/10/05 03:34:12;;;;;;;27.48;13.80;;;;;;;;;;7385563;19;20477;-75
2022/10/05 03:37:01;;;;;;;31.50;13.13;;;;;;;;;;7387642;19;20381;-74
2022/10/05 03:39:39;;;;;;;30.40;13.73;;;;;;;;;;7386549;19;20006;-74
2022/10/05 03:42:40;;;;;;;30.50;14.63;;;;;;;;;;7384344;19;20029;-74
2022/10/05 03:45:12;;;;;;;28.23;13.27;;;;;;;;;;7384322;19;20367;-74
2022/10/05 03:47:54;;;;;;;33.45;13.82;;;;;;;;;;7384960;19;20026;-74
2022/10/05 03:50:39;;;;;;;70.53;15.18;;;;;;;;;;7385569;19;20089;-73
2022/10/05 03:53:15;;;;;;;55.28;14.23;;;;;;;;;;7380434;19;20763;-75
2022/10/05 03:56:16;;;;;;;41.38;14.23;;;;;;;;;;7379745;19;20399;-75
2022/10/05 03:58:53;;;;;;;34.15;13.68;;;;;;;;;;7381479;19;20077;-75
2022/10/05 04:01:24;;;;;;;31.98;13.48;;;;;;;;;;7379832;19;20533;-74
2022/10/05 04:03:55;;;;;;;28.63;14.00;;;;;;;;;;7387255;19;20020;-73
2022/10/05 04:06:27;;;;;;;34.72;14.23;;;;;;;;;;7387761;19;20006;-72
2022/10/05 04:09:00;;;;;;;37.22;13.35;;;;;;;;;;7385824;19;20007;-73
2022/10/05 04:11:32;;;;;;;30.67;14.10;;;;;;;;;;7381129;19;20359;-73
2022/10/05 04:14:01;;;;;;;24.38;13.57;;;;;;;;;;7320967;19;20567;-76
2022/10/05 04:16:33;;;;;;;25.88;11.98;;;;;;;;;;7386040;19;20353;-74
2022/10/05 04:19:13;;;;;;;36.17;12.80;;;;;;;;;;7285157;19;20006;-74
2022/10/05 04:21:55;;;;;;;34.13;11.85;;;;;;;;;;7389010;19;20027;-74
2022/10/05 04:24:29;;;;;;;58.22;13.38;;;;;;;;;;7392522;19;20013;-74
2022/10/05 04:27:03;;;;;;;68.85;13.90;;;;;;;;;;7392506;19;20481;-73
2022/10/05 04:29:55;;;;;;;67.78;13.90;;;;;;;;;;7392753;19;20010;-74
2022/10/05 04:32:37;;;;;;;53.15;13.30;;;;;;;;;;7390760;19;20456;-74
2022/10/05 04:35:18;;;;;;;32.60;10.35;;;;;;;;;;7393009;19;20036;-74
2022/10/05 04:37:57;;;;;;;34.38;10.63;;;;;;;;;;7393648;19;19998;-73
2022/10/05 04:40:51;;;;;;;49.30;11.65;;;;;;;;;;7388789;19;19999;-73
2022/10/05 04:43:35;;;;;;;25.13;10.68;;;;;;;;;;7390349;19;20065;-73
2022/10/05 04:46:06;;;;;;;92.18;11.15;;;;;;;;;;7389466;19;20476;-74
2022/10/05 04:48:43;;;;;;;76.55;12.40;;;;;;;;;;7386679;19;20299;-74
2022/10/05 04:51:32;;;;;;;26.40;11.18;;;;;;;;;;7390985;19;19998;-74
2022/10/05 04:54:23;;;;;;;28.92;14.43;;;;;;;;;;7392484;19;20017;-74
2022/10/05 04:56:55;;;;;;;21.98;11.20;;;;;;;;;;7391790;19;19995;-73
2022/10/05 05:00:01;;;;;;;22.40;10.90;;;;;;;;;;7391655;19;20001;-73
2022/10/05 05:02:50;;;;;;;25.45;11.38;;;;;;;;;;7391934;19;20085;-74
2022/10/05 05:05:46;;;;;;;29.17;10.93;;;;;;;;;;7393629;19;19997;-74
2022/10/05 05:08:17;;;;;;;26.02;12.05;;;;;;;;;;7393361;19;20006;-73
2022/10/05 05:10:54;;;;;;;27.15;11.90;;;;;;;;;;7392476;19;20006;-74
2022/10/05 05:13:22;;;;;;;24.05;10.65;;;;;;;;;;7393003;19;20069;-74
2022/10/05 05:16:02;;;;;;;27.52;10.85;;;;;;;;;;7392068;19;20024;-73
2022/10/05 05:18:49;;;;;;;25.63;11.77;;;;;;;;;;7393778;19;20483;-72
2022/10/05 05:21:39;;;;;;;35.10;17.50;;;;;;;;;;7390919;19;20091;-74
2022/10/05 05:24:10;;;;;;;36.40;17.42;;;;;;;;;;7391759;19;20351;-71
2022/10/05 05:26:59;;;;;;;37.22;15.90;;;;;;;;;;7393270;19;20003;-73
2022/10/05 05:29:56;;;;;;;30.85;12.15;;;;;;;;;;7390173;19;19998;-73
2022/10/05 05:32:58;;;;;;;27.65;11.48;;;;;;;;;;7391479;19;20006;-74
2022/10/05 05:35:31;;;;;;;38.28;13.15;;;;;;;;;;7385800;19;20006;-75
2022/10/05 05:38:24;;;;;;;30.42;12.13;;;;;;;;;;7387025;19;20011;-75
2022/10/05 05:41:16;;;;;;;27.85;11.73;;;;;;;;;;7386858;19;20086;-75
2022/10/05 05:44:14;;;;;;;42.85;18.42;;;;;;;;;;7387253;19;20002;-72
2022/10/05 05:46:48;;;;;;;29.42;12.45;;;;;;;;;;7387919;19;20100;-74
2022/10/05 05:50:04;;;;;;;35.35;11.20;;;;;;;;;;7386505;19;20007;-75
2022/10/05 05:52:37;;;;;;;25.58;10.90;;;;;;;;;;7386840;19;20033;-73
2022/10/05 05:55:23;;;;;;;26.65;11.10;;;;;;;;;;7388928;19;20065;-73
2022/10/05 05:58:07;;;;;;;29.75;12.55;;;;;;;;;;7390733;19;20034;-74
2022/10/05 06:00:42;;;;;;;27.42;11.57;;;;;;;;;;7391079;19;20019;-73
2022/10/05 06:03:38;;;;;;;30.73;10.93;;;;;;;;;;7388323;19;19999;-74
2022/10/05 06:06:08;;;;;;;23.98;10.40;;;;;;;;;;7391733;19;20046;-73
2022/10/05 06:08:34;;;;;;;32.80;10.80;;;;;;;;;;7391820;19;20058;-74
2022/10/05 06:11:18;;;;;;;33.38;11.15;;;;;;;;;;7389193;19;20019;-74
2022/10/05 06:13:45;;;;;;;28.92;10.93;;;;;;;;;;7390295;19;20013;-74
2022/10/05 06:16:27;;;;;;;28.60;11.02;;;;;;;;;;7390894;19;20009;-75
2022/10/05 06:18:56;;;;;;;29.42;11.50;;;;;;;;;;7389106;19;20003;-74
2022/10/05 06:21:39;;;;;;;24.75;11.52;;;;;;;;;;7389256;19;20002;-73
2022/10/05 06:24:36;;;;;;;21.92;10.60;;;;;;;;;;7391820;19;20503;-74
2022/10/05 06:27:17;;;;;;;25.23;10.77;;;;;;;;;;7386860;19;20025;-72
2022/10/05 06:30:02;;;;;;;26.23;11.40;;;;;;;;;;7236549;19;20101;-73
2022/10/05 06:32:47;;;;;;;20.70;10.02;;;;;;;;;;7389297;19;20035;-73
2022/10/05 06:35:21;;;;;;;23.13;11.13;;;;;;;;;;7388062;19;20026;-74
2022/10/05 06:38:10;;;;;;;24.58;11.55;;;;;;;;;;7388887;19;20003;-73
2022/10/05 06:41:11;;;;;;;23.08;11.00;;;;;;;;;;7385738;19;20493;-74
2022/10/05 06:43:55;;;;;;;21.42;10.25;;;;;;;;;;7389781;19;20491;-74
2022/10/05 06:46:28;;;;;;;19.52;10.10;;;;;;;;;;7387693;19;20553;-74
2022/10/05 06:48:53;;;;;;;21.77;10.95;;;;;;;;;;7390766;19;20002;-74
2022/10/05 06:51:27;;;;;;;23.92;11.15;;;;;;;;;;7387371;19;20067;-74
2022/10/05 06:54:28;;;;;;;21.92;10.55;;;;;;;;;;7389646;19;19998;-74
2022/10/05 06:57:29;;;;;;;22.63;10.38;;;;;;;;;;7385737;19;20351;-72
2022/10/05 07:00:00;;;;;;;24.33;10.55;;;;;;;;;;7388456;19;20498;-74
2022/10/05 07:02:47;;;;;;;27.63;10.45;;;;;;;;;;7387275;19;20359;-75
2022/10/05 07:05:46;;;;;;;26.95;11.02;;;;;;;;;;7387747;19;20003;-75
2022/10/05 07:08:44;;;;;;;24.50;11.50;;;;;;;;;;7389082;19;20027;-75
2022/10/05 07:11:19;;;;;;;25.27;11.15;;;;;;;;;;7384939;19;20022;-75
2022/10/05 07:14:09;;;;;;;22.95;11.48;;;;;;;;;;7386716;19;19998;-73
2022/10/05 07:17:14;;;;;;;26.67;11.82;;;;;;;;;;7390601;19;20015;-72
2022/10/05 07:20:18;;;;;;;25.88;10.93;;;;;;;;;;7388966;19;20037;-73
2022/10/05 07:22:58;;;;;;;25.67;10.73;;;;;;;;;;7382042;19;19999;-73
2022/10/05 07:25:35;;;;;;;22.20;10.70;;;;;;;;;;7388654;19;19994;-74
2022/10/05 07:28:07;;;;;;;21.15;10.75;;;;;;;;;;7385442;19;20010;-74
2022/10/05 07:31:08;;;;;;;22.63;10.85;;;;;;;;;;7393156;19;19998;-74
2022/10/05 07:33:52;;;;;;;19.40;10.55;;;;;;;;;;7388553;19;20405;-74
2022/10/05 07:39:45;;;;;;;18.20;10.25;;;;;;;;;;7387501;19;20021;-74
2022/10/05 07:42:22;;;;;;;18.63;9.05;;;;;;;;;;7387674;19;20418;-75
2022/10/05 07:45:06;;;;;;;19.50;9.90;;;;;;;;;;7386015;19;20003;-76
2022/10/05 07:47:37;;;;;;;22.23;10.15;;;;;;;;;;7385177;19;19998;-73
2022/10/05 07:50:21;;;;;;;18.38;10.63;;;;;;;;;;7385875;19;20011;-74
2022/10/05 07:53:05;;;;;;;17.88;10.10;;;;;;;;;;7387481;19;20010;-75
2022/10/05 07:55:35;;;;;;;20.98;10.40;;;;;;;;;;7390779;19;20002;-74
2022/10/05 07:58:18;;;;;;;19.63;10.27;;;;;;;;;;7394556;19;20011;-74
2022/10/05 08:01:20;;;;;;;21.05;10.35;;;;;;;;;;7395462;19;20007;-75
2022/10/05 08:04:19;;;;;;;18.30;9.60;;;;;;;;;;7394814;19;20010;-74
2022/10/05 08:06:52;;;;;;;18.35;9.65;;;;;;;;;;7391382;19;20010;-73
2022/10/05 08:09:23;;;;;;;17.40;10.00;;;;;;;;;;7393213;19;20006;-73
2022/10/05 08:11:57;;;;;;;;;;;;;;;;;;7389789;19;20019;-74
2022/10/05 08:14:51;;;;;;;15.80;8.52;;;;;;;;;;7312832;19;1005139;-75
2022/10/05 08:17:31;;;;;;;17.27;9.48;;;;;;;;;;7369357;19;20007;-74
2022/10/05 08:20:21;;;;;;;15.45;8.57;;;;;;;;;;7395546;19;20015;-74
2022/10/05 08:22:53;;;;;;;15.27;9.20;;;;;;;;;;7391624;19;20453;-75
2022/10/05 08:25:25;;;;;;;15.45;9.18;;;;;;;;;;7394023;19;20459;-74
2022/10/05 08:28:01;;;;;;;18.27;9.52;;;;;;;;;;7394680;19;20002;-74
2022/10/05 08:30:30;;;;;;;14.52;8.50;;;;;;;;;;7395030;19;20480;-75
2022/10/05 08:33:11;;;;;;;14.38;8.55;;;;;;;;;;7368713;19;20011;-75
2022/10/05 08:35:42;;;;;;;14.90;8.63;;;;;;;;;;7391672;19;20010;-76
2022/10/05 08:38:14;;;;;;;14.23;8.90;;;;;;;;;;7393810;19;20077;-74
2022/10/05 08:41:14;;;;;;;15.40;8.88;;;;;;;;;;7395758;19;20007;-75
2022/10/05 08:44:06;;;;;;;16.48;10.27;;;;;;;;;;7389750;19;20066;-74
2022/10/05 08:47:09;;;;;;;14.52;9.07;;;;;;;;;;7395549;19;19998;-74
2022/10/05 08:49:46;;;;;;;16.15;8.88;;;;;;;;;;7392928;19;20352;-74
2022/10/05 08:52:14;;;;;;;12.30;8.02;;;;;;;;;;7393421;19;19994;-75
2022/10/05 08:54:40;;;;;;;14.02;8.95;;;;;;;;;;7394963;19;19994;-73
2022/10/05 08:57:23;;;;;;;15.07;8.30;;;;;;;;;;7392864;19;20483;-75
2022/10/05 09:00:09;;;;;;;12.15;7.88;;;;;;;;;;7392773;19;20259;-75
2022/10/05 09:02:55;;;;;;;18.25;8.95;;;;;;;;;;7394429;19;19999;-75
2022/10/05 09:06:08;;;;;;;12.05;8.02;;;;;;;;;;7390874;19;20006;-74
2022/10/05 09:08:36;;;;;;;11.07;7.45;;;;;;;;;;7394954;19;20003;-74
2022/10/05 09:11:24;;;;;;;10.80;7.28;;;;;;;;;;7389420;19;20002;-73
2022/10/05 09:14:06;;;;;;;11.43;7.72;;;;;;;;;;7393917;19;20010;-75
2022/10/05 09:17:04;;;;;;;11.55;7.68;;;;;;;;;;7393189;19;20003;-74
2022/10/05 09:19:55;;;;;;;9.93;7.22;;;;;;;;;;7394368;19;20003;-74
2022/10/05 09:22:37;;;;;;;12.07;7.57;;;;;;;;;;7392852;19;20019;-73
2022/10/05 09:25:19;;;;;;;11.93;7.60;;;;;;;;;;7390101;19;20476;-75
2022/10/05 09:27:55;;;;;;;9.88;6.70;;;;;;;;;;7392774;19;20483;-74
2022/10/05 09:30:45;;;;;;;12.55;7.68;;;;;;;;;;7391060;19;20017;-75
2022/10/05 09:33:25;;;;;;;10.35;7.32;;;;;;;;;;7387246;19;20015;-75
2022/10/05 09:35:51;;;;;;;10.63;6.97;;;;;;;;;;7390479;19;20066;-75
2022/10/05 09:38:28;;;;;;;12.10;6.43;;;;;;;;;;7391640;19;20041;-73
2022/10/05 09:41:10;;;;;;;8.90;6.25;;;;;;;;;;7388453;19;20448;-75
2022/10/05 09:43:35;;;;;;;8.25;5.93;;;;;;;;;;7391105;19;20006;-75
2022/10/05 09:46:23;;;;;;;10.17;5.77;;;;;;;;;;7392330;19;20404;-74
2022/10/05 09:48:58;;;;;;;9.40;6.07;;;;;;;;;;7386954;19;20858;-73
2022/10/05 09:52:09;;;;;;;9.07;5.85;;;;;;;;;;7387541;19;20006;-74
2022/10/05 09:55:00;;;;;;;8.35;5.70;;;;;;;;;;7387973;19;20065;-73
2022/10/05 09:58:03;;;;;;;8.65;5.55;;;;;;;;;;7390989;19;20015;-74
2022/10/05 10:00:36;;;;;;;8.70;6.10;;;;;;;;;;7332787;19;20599;-74
2022/10/05 10:03:04;;;;;;;9.35;6.10;;;;;;;;;;7388524;19;20015;-73
2022/10/05 10:05:32;;;;;;;9.52;6.25;;;;;;;;;;7388720;19;20021;-74
2022/10/05 10:08:04;;;;;;;9.15;5.93;;;;;;;;;;7388810;19;20026;-74
2022/10/05 10:11:00;;;;;;;12.57;7.28;;;;;;;;;;7388471;19;20031;-76
2022/10/05 10:13:59;;;;;;;9.20;5.95;;;;;;;;;;7387002;19;20009;-74
2022/10/05 10:16:48;;;;;;;10.45;6.18;;;;;;;;;;7387761;19;20364;-74
2022/10/05 10:19:39;;;;;;;9.23;6.20;;;;;;;;;;7389056;19;20034;-75
2022/10/05 10:22:35;;;;;;;10.88;5.70;;;;;;;;;;7389772;19;20349;-74
2022/10/05 10:25:30;;;;;;;7.63;5.40;;;;;;;;;;7388959;19;20002;-75
2022/10/05 10:28:01;;;;;;;8.25;4.93;;;;;;;;;;7384800;19;20017;-75
2022/10/05 10:31:00;;;;;;;11.43;6.30;;;;;;;;;;7388813;19;20010;-75
2022/10/05 10:33:37;;;;;;;9.85;6.18;;;;;;;;;;7388531;19;20412;-74
2022/10/05 10:36:18;;;;;;;19.08;8.95;;;;;;;;;;7387154;19;20379;-74
2022/10/05 10:39:12;;;;;;;11.65;7.68;;;;;;;;;;7390964;19;20006;-74
2022/10/05 10:42:06;;;;;;;10.23;5.95;;;;;;;;;;7384297;19;20349;-75
2022/10/05 10:44:51;;;;;;;6.43;3.80;;;;;;;;;;7390859;19;20006;-74
2022/10/05 10:47:51;;;;;;;6.03;3.58;;;;;;;;;;7386974;19;20002;-73
2022/10/05 10:50:27;;;;;;;4.40;2.92;;;;;;;;;;7389251;19;20460;-73
2022/10/05 10:53:23;;;;;;;5.72;2.80;;;;;;;;;;7384151;19;20468;-73
2022/10/05 10:56:22;;;;;;;5.32;2.92;;;;;;;;;;7388014;19;20005;-75
2022/10/05 10:59:22;;;;;;;7.75;3.08;;;;;;;;;;7386773;19;19998;-75
2022/10/05 11:02:02;;;;;;;4.45;2.67;;;;;;;;;;7364649;19;20511;-74
2022/10/05 11:05:00;;;;;;;5.60;3.20;;;;;;;;;;7391105;19;20002;-75
2022/10/05 11:07:44;;;;;;;5.45;2.85;;;;;;;;;;7390877;19;20009;-76
2022/10/05 11:10:34;;;;;;;7.57;3.00;;;;;;;;;;7390732;19;19998;-74
2022/10/05 11:13:17;;;;;;;7.55;3.15;;;;;;;;;;7387830;19;20006;-74
2022/10/05 11:15:59;;;;;;;4.25;2.30;;;;;;;;;;7387239;19;19998;-73
2022/10/05 11:18:27;;;;;;;3.42;2.30;;;;;;;;;;7390503;19;20002;-75
2022/10/05 11:21:10;;;;;;;3.95;2.38;;;;;;;;;;7385526;19;20007;-75
2022/10/05 11:24:00;;;;;;;6.63;2.50;;;;;;;;;;7388977;19;20041;-74
2022/10/05 11:26:52;;;;;;;6.20;3.50;;;;;;;;;;7389775;19;20007;-74
2022/10/05 11:29:35;;;;;;;5.47;2.75;;;;;;;;;;7388930;19;20232;-75
2022/10/05 11:32:10;;;;;;;5.93;2.80;;;;;;;;;;7386256;19;20472;-73
2022/10/05 11:35:07;;;;;;;5.90;2.33;;;;;;;;;;7390342;19;20469;-73
2022/10/05 11:37:45;;;;;;;3.22;2.22;;;;;;;;;;7386850;19;19998;-73
2022/10/05 11:40:17;;;;;;;4.60;2.40;;;;;;;;;;7388409;19;20005;-73
2022/10/05 11:42:57;;;;;;;4.90;2.30;;;;;;;;;;7387140;19;19999;-74
2022/10/05 11:45:49;;;;;;;5.10;2.53;;;;;;;;;;7390165;19;20492;-75
2022/10/05 11:48:35;;;;;;;6.20;2.60;;;;;;;;;;7387638;19;20019;-76
2022/10/05 11:51:22;;;;;;;4.85;2.72;;;;;;;;;;7384120;19;20030;-74
2022/10/05 11:54:17;;;;;;;5.60;3.10;;;;;;;;;;7388305;19;20069;-73
2022/10/05 11:57:02;;;;;;;7.00;2.53;;;;;;;;;;7388499;19;20035;-75
2022/10/05 11:59:30;;;;;;;5.20;2.47;;;;;;;;;;7387114;19;20356;-74
2022/10/05 12:02:26;;;;;;;5.45;2.55;;;;;;;;;;7384624;19;20349;-73
2022/10/05 12:05:31;;;;;;;5.07;2.90;;;;;;;;;;7384687;19;20006;-76
2022/10/05 12:08:08;;;;;;;5.45;2.65;;;;;;;;;;7387765;19;20010;-74
2022/10/05 12:11:12;;;;;;;3.90;2.40;;;;;;;;;;7388576;19;20007;-73
2022/10/05 12:13:43;;;;;;;4.18;2.22;;;;;;;;;;7387392;19;20039;-74
2022/10/05 12:16:29;;;;;;;3.90;2.30;;;;;;;;;;7383994;19;20006;-74
2022/10/05 12:18:54;;;;;;;2.90;2.00;;;;;;;;;;7384180;19;20037;-73
2022/10/05 12:21:31;;;;;;;4.72;2.40;;;;;;;;;;7381155;19;20446;-74
2022/10/05 12:24:08;;;;;;;4.10;2.40;;;;;;;;;;7385820;19;20006;-74
2022/10/05 12:26:51;;;;;;;4.15;2.10;;;;;;;;;;7388736;19;20369;-73
2022/10/05 12:29:36;;;;;;;6.40;2.40;;;;;;;;;;7384337;19;20003;-73
2022/10/05 12:32:12;;;;;;;5.53;2.50;;;;;;;;;;7381736;19;20491;-74
2022/10/05 12:34:51;;;;;;;4.38;2.20;;;;;;;;;;7388546;19;20074;-74
2022/10/05 12:37:39;;;;;;;5.63;2.30;;;;;;;;;;7386314;19;20387;-72
2022/10/05 12:40:16;;;;;;;4.28;2.55;;;;;;;;;;7392126;19;20003;-74
2022/10/05 12:43:04;;;;;;;9.02;3.95;;;;;;;;;;7394734;19;19999;-74
2022/10/05 12:45:36;;;;;;;5.88;3.22;;;;;;;;;;7394591;19;20002;-73
2022/10/05 12:48:26;;;;;;;4.88;2.75;;;;;;;;;;7395193;19;20394;-74
2022/10/05 12:51:10;;;;;;;4.50;2.40;;;;;;;;;;7390926;19;20512;-73
2022/10/05 12:53:53;;;;;;;4.25;2.58;;;;;;;;;;7393473;19;20546;-73
2022/10/05 12:56:51;;;;;;;4.15;2.22;;;;;;;;;;7393207;19;20002;-73
2022/10/05 12:59:23;;;;;;;3.65;2.30;;;;;;;;;;7393194;19;20023;-73
2022/10/05 13:02:23;;;;;;;3.85;2.30;;;;;;;;;;7388657;19;20027;-73
2022/10/05 13:05:07;;;;;;;4.45;2.42;;;;;;;;;;7390017;19;19995;-72
2022/10/05 13:08:06;;;;;;;3.80;2.40;;;;;;;;;;7393872;19;20033;-72
2022/10/05 13:10:55;;;;;;;5.18;2.90;;;;;;;;;;7394740;19;20371;-71
2022/10/05 13:13:26;;;;;;;4.85;2.95;;;;;;;;;;7392064;19;20002;-73
2022/10/05 13:16:04;;;;;;;4.40;2.47;;;;;;;;;;7392311;19;20359;-73
2022/10/05 13:19:08;;;;;;;4.97;2.40;;;;;;;;;;7394719;19;20029;-73
2022/10/05 13:21:46;;;;;;;4.10;2.38;;;;;;;;;;7389925;19;20006;-73
2022/10/05 13:24:22;;;;;;;5.82;2.60;;;;;;;;;;7393995;19;20006;-71
2022/10/05 13:26:53;;;;;;;6.97;2.40;;;;;;;;;;7391785;19;20003;-71
2022/10/05 13:29:46;;;;;;;9.85;6.85;;;;;;;;;;7392007;19;20006;-73
2022/10/05 13:32:26;;;;;;;6.25;3.00;;;;;;;;;;7390856;19;20006;-72
2022/10/05 13:35:15;;;;;;;6.60;2.63;;;;;;;;;;7391084;19;20019;-71
2022/10/05 13:37:49;;;;;;;6.18;2.30;;;;;;;;;;7393035;19;20038;-71
2022/10/05 13:40:31;;;;;;;4.95;2.10;;;;;;;;;;7393105;19;19999;-71
2022/10/05 13:43:39;;;;;;;7.47;2.38;;;;;;;;;;7386782;19;20075;-71
2022/10/05 13:46:16;;;;;;;5.05;2.38;;;;;;;;;;7386746;19;19998;-71
2022/10/05 13:48:49;;;;;;;3.42;2.28;;;;;;;;;;7393430;19;20009;-71
2022/10/05 13:51:22;;;;;;;2.42;1.92;;;;;;;;;;7386974;19;20007;-70
2022/10/05 13:53:55;;;;;;;3.97;2.10;;;;;;;;;;7393427;19;20011;-70
2022/10/05 13:56:33;;;;;;;5.18;2.10;;;;;;;;;;7389569;19;20024;-69
2022/10/05 13:59:17;;;;;;;4.97;2.35;;;;;;;;;;7387999;19;20512;-70
2022/10/05 14:01:48;;;;;;;5.85;2.40;;;;;;;;;;7388037;19;20120;-70
2022/10/05 14:04:19;;;;;;;;;;;;;;;;;;7392073;19;20006;-71
2022/10/05 14:06:45;;;;;;;5.63;2.30;;;;;;;;;;7390760;19;19923;-72
2022/10/05 14:09:25;;;;;;;3.53;2.00;;;;;;;;;;7389804;19;20051;-70
2022/10/05 14:12:13;;;;;;;3.75;1.90;;;;;;;;;;7388331;19;20101;-73
2022/10/05 14:14:59;;;;;;;10.27;4.00;;;;;;;;;;7389835;19;20079;-70
2022/10/05 14:17:34;;;;;;;4.75;2.28;;;;;;;;;;7391916;19;19999;-71
2022/10/05 14:20:14;;;;;;;3.42;2.05;;;;;;;;;;7390857;19;20027;-69
2022/10/05 14:22:41;;;;;;;3.78;2.15;;;;;;;;;;7389696;19;19999;-70
2022/10/05 14:25:06;;;;;;;4.50;2.15;;;;;;;;;;7385408;19;20003;-70
2022/10/05 14:27:51;;;;;;;4.23;2.10;;;;;;;;;;7391666;19;20571;-69
2022/10/05 14:30:19;;;;;;;6.47;2.50;;;;;;;;;;7390421;19;20271;-69
2022/10/05 14:32:57;;;;;;;5.18;2.20;;;;;;;;;;7390794;19;20066;-69
2022/10/05 14:35:28;;;;;;;2.88;2.00;;;;;;;;;;7389727;19;20015;-71
2022/10/05 14:38:08;;;;;;;3.58;2.00;;;;;;;;;;7389704;19;20003;-70
2022/10/05 14:40:35;;;;;;;3.23;1.83;;;;;;;;;;7388903;19;20041;-70
2022/10/05 14:43:17;;;;;;;4.75;2.25;;;;;;;;;;7389570;19;20407;-70
2022/10/05 14:45:54;;;;;;;6.38;2.40;;;;;;;;;;7391108;19;20072;-70
2022/10/05 14:48:20;;;;;;;22.70;15.65;;;;;;;;;;7390686;19;20102;-70
2022/10/05 14:51:02;;;;;;;14.00;10.15;;;;;;;;;;7386713;19;19991;-70
2022/10/05 14:53:36;;;;;;;6.05;2.00;;;;;;;;;;7392128;19;20002;-73
2022/10/05 14:56:20;;;;;;;3.65;2.00;;;;;;;;;;7390961;19;19994;-69
2022/10/05 14:59:04;;;;;;;4.45;2.20;;;;;;;;;;7384442;19;20023;-71
2022/10/05 15:01:33;;;;;;;4.95;2.00;;;;;;;;;;7380180;19;20682;-71
2022/10/05 15:04:29;;;;;;;4.03;2.20;;;;;;;;;;7382539;19;19998;-70
2022/10/05 15:07:12;;;;;;;3.28;2.20;;;;;;;;;;7383005;19;19994;-70
2022/10/05 15:10:00;;;;;;;4.07;2.30;;;;;;;;;;7384919;19;20003;-70
2022/10/05 15:12:36;;;;;;;4.97;2.20;;;;;;;;;;7380798;19;20003;-72
2022/10/05 15:15:20;;;;;;;6.63;2.20;;;;;;;;;;7386639;19;19995;-70
2022/10/05 15:17:53;;;;;;;3.92;2.25;;;;;;;;;;7389140;19;19999;-71
2022/10/05 15:20:23;;;;;;;4.93;2.13;;;;;;;;;;7389430;19;20005;-71
2022/10/05 15:22:54;;;;;;;4.43;2.20;;;;;;;;;;7361481;19;20007;-71
2022/10/05 15:25:35;;;;;;;5.40;2.55;;;;;;;;;;7386658;19;20464;-70
2022/10/05 15:28:53;;;;;;;4.03;2.33;;;;;;;;;;7388298;19;20554;-70
2022/10/05 15:31:29;;;;;;;3.53;2.00;;;;;;;;;;7379724;19;20571;-70
2022/10/05 15:34:10;;;;;;;3.47;2.17;;;;;;;;;;7385889;19;19999;-69
2022/10/05 15:37:38;;;;;;;5.65;2.20;;;;;;;;;;7376267;19;20074;-69
2022/10/05 15:40:35;;;;;;;4.10;2.30;;;;;;;;;;7376684;19;20035;-70
2022/10/05 15:43:15;;;;;;;4.57;2.10;;;;;;;;;;7379733;19;19999;-70
2022/10/05 15:46:02;;;;;;;3.63;2.08;;;;;;;;;;7380261;19;20059;-70
2022/10/05 15:48:48;;;;;;;3.78;2.28;;;;;;;;;;7384302;19;20765;-70
2022/10/05 15:51:40;;;;;;;5.60;2.70;;;;;;;;;;7378870;19;20070;-71
2022/10/05 15:57:31;;;;;;;10.85;6.45;;;;;;;;;;7380675;19;20383;-70
2022/10/05 16:00:00;;;;;;;6.88;3.58;;;;;;;;;;7381570;19;20020;-69
2022/10/05 16:02:43;;;;;;;5.32;2.63;;;;;;;;;;7381476;19;20002;-69